Doische, Belgium
Current Conditions -  °F | °C
As of 4:55 AM on Wednesday 22 Oct 2014 (Local Time) from EBFS Reporting Station
Scattered Clouds Scattered Clouds  
Wind Chill: 35°   Ceiling: Unl
Heat Index: 43°   Visibility: 6mi
Dew Point: 37°   Wind: 15mph
Humidity: 81%   Direction: 290°WNW
Pressure: 30.06"   Gusts: NA
Location:  50.13°N, 4.74°E
Report Text: EBFS 220255Z 29013KT 9999 FEW029 SCT230 06/03 Q1018 BLU
Loading
Personal Weather Stations






























Interactive Weather Map
Tropical Storm Tracking
New forecast layout! Learn more

10-Day Weather Forecast

Advertisements
Track Severe Weather on mobile